createdAt,value
2022-12-23T00:00:23.418Z,98464.88
2022-12-23T00:01:29.527Z,98468.38
2022-12-23T00:02:33.897Z,98468.28
2022-12-23T00:03:39.576Z,98462.25
2022-12-23T00:04:44.708Z,98468.28
2022-12-23T00:05:51.209Z,98468.28
2022-12-23T00:07:00.293Z,98461.41
2022-12-23T00:08:06.383Z,98465.84
2022-12-23T00:09:11.172Z,98464.88
2022-12-23T00:10:15.148Z,98463.19
2022-12-23T00:11:21.198Z,98465.72
2022-12-23T00:12:44.639Z,98464.03
2022-12-23T00:14:07.703Z,98463.19
2022-12-23T00:15:14.591Z,98467.88
2022-12-23T00:16:20.973Z,98458.13
2022-12-23T00:17:26.112Z,98472.19
2022-12-23T00:18:30.451Z,98467.03
2022-12-23T00:19:34.187Z,98470.56
2022-12-23T00:20:38.159Z,98465.22
2022-12-23T00:21:41.924Z,98461.94
2022-12-23T00:23:05.197Z,98466.25
2022-12-23T00:24:26.539Z,98466.19
2022-12-23T00:25:42.395Z,98470.19
2022-12-23T00:26:46.185Z,98468.16
2022-12-23T00:28:05.571Z,98472.06
2022-12-23T00:29:10.349Z,98466.88
2022-12-23T00:30:17.045Z,98485.47
2022-12-23T00:31:21.513Z,98479.13
2022-12-23T00:32:29.167Z,98487.69
2022-12-23T00:33:38.266Z,98487.78
2022-12-23T00:34:47.374Z,98486.88
2022-12-23T00:35:56.117Z,98492.72
2022-12-23T00:37:02.609Z,98490.03
2022-12-23T00:38:07.014Z,98486.09
2022-12-23T00:39:36.853Z,98498.34
2022-12-23T00:41:00.845Z,98496.00
2022-12-23T00:42:45.859Z,98490.00
2022-12-23T00:44:10.540Z,98500.31
2022-12-23T00:45:23.103Z,98498.44
2022-12-23T00:46:28.599Z,98501.09
2022-12-23T00:47:51.258Z,98500.13
2022-12-23T00:49:15.647Z,98497.16
2022-12-23T00:50:20.996Z,98497.91
2022-12-23T00:51:35.620Z,98509.50
2022-12-23T00:52:41.157Z,98500.22
2022-12-23T00:53:45.605Z,98509.66
2022-12-23T00:55:00.798Z,98497.88
2022-12-23T00:56:06.005Z,98503.88
2022-12-23T00:57:18.171Z,98501.34
2022-12-23T00:58:24.708Z,98505.50
2022-12-23T00:59:30.877Z,98504.84
2022-12-23T01:01:05.800Z,98510.09
2022-12-23T01:02:51.451Z,98508.41
2022-12-23T01:04:16.474Z,98510.94
2022-12-23T01:05:39.483Z,98516.44
2022-12-23T01:06:43.507Z,98519.94
2022-12-23T01:07:58.041Z,98523.19
2022-12-23T01:09:02.182Z,98520.56
2022-12-23T01:10:10.470Z,98520.66
2022-12-23T01:11:15.267Z,98524.91
2022-12-23T01:12:24.395Z,98523.63
2022-12-23T01:13:28.816Z,98522.84
2022-12-23T01:14:36.141Z,98524.66
2022-12-23T01:15:39.646Z,98520.88
2022-12-23T01:16:49.451Z,98520.03
2022-12-23T01:17:53.149Z,98520.22
2022-12-23T01:18:56.880Z,98522.13
2022-12-23T01:20:00.744Z,98527.09
2022-12-23T01:21:15.043Z,98530.59
2022-12-23T01:22:19.079Z,98517.19
2022-12-23T01:23:22.698Z,98524.25
2022-12-23T01:24:33.785Z,98522.47
2022-12-23T01:25:37.894Z,98521.81
2022-12-23T01:26:43.070Z,98523.19
2022-12-23T01:27:46.878Z,98524.09
2022-12-23T01:28:58.131Z,98515.25
2022-12-23T01:30:29.346Z,98522.00
2022-12-23T01:33:31.444Z,98516.50
2022-12-23T01:34:37.373Z,98516.41
2022-12-23T01:35:44.450Z,98514.59
2022-12-23T01:36:50.155Z,98514.41
2022-12-23T01:37:54.351Z,98510.50
2022-12-23T01:38:58.557Z,98512.28
2022-12-23T01:40:04.552Z,98510.38
2022-12-23T01:41:39.542Z,98507.63
2022-12-23T01:42:53.836Z,98501.63
2022-12-23T01:43:58.602Z,98510.78
2022-12-23T01:45:18.319Z,98509.09
2022-12-23T01:46:22.948Z,98508.41
2022-12-23T01:47:53.437Z,98505.59
2022-12-23T01:49:05.465Z,98507.28
2022-12-23T01:50:33.270Z,98506.34
2022-12-23T01:51:37.857Z,98503.16
2022-12-23T01:53:06.851Z,98501.34
2022-12-23T01:54:13.445Z,98500.31
2022-12-23T01:55:25.463Z,98498.72
2022-12-23T01:56:40.947Z,98504.84
2022-12-23T01:57:47.640Z,98497.88
2022-12-23T01:59:37.195Z,98498.94
2022-12-23T02:01:20.493Z,98496.78
2022-12-23T02:02:49.022Z,98496.13
2022-12-23T02:04:01.762Z,98500.47
2022-12-23T02:05:08.301Z,98501.16
2022-12-23T02:07:04.373Z,98501.50
2022-12-23T02:08:45.469Z,98511.88
2022-12-23T02:12:18.093Z,98507.72
2022-12-23T02:14:10.492Z,98501.88
2022-12-23T02:16:11.062Z,98517.34
2022-12-23T02:17:31.127Z,98501.16
2022-12-23T02:19:06.380Z,98508.13
2022-12-23T02:20:40.992Z,98495.03
2022-12-23T02:22:25.249Z,98506.25
2022-12-23T02:24:09.255Z,98513.38
2022-12-23T02:25:44.999Z,98516.69
2022-12-23T02:27:26.925Z,98518.47
2022-12-23T02:28:55.167Z,98520.69
2022-12-23T02:30:11.454Z,98519.56
2022-12-23T02:31:38.075Z,98513.34
2022-12-23T02:33:03.758Z,98522.09
2022-12-23T02:34:27.414Z,98522.09
2022-12-23T02:35:54.593Z,98513.25
2022-12-23T02:37:43.562Z,98516.44
2022-12-23T02:39:37.138Z,98514.47
2022-12-23T02:40:56.399Z,98512.66
2022-12-23T02:42:16.667Z,98516.91
2022-12-23T02:43:43.488Z,98517.84
2022-12-23T02:45:02.846Z,98517.28
2022-12-23T02:46:52.101Z,98521.59
2022-12-23T02:48:22.798Z,98524.06
2022-12-23T02:49:50.098Z,98518.69
2022-12-23T02:50:58.238Z,98529.25
2022-12-23T02:52:14.721Z,98523.75
2022-12-23T02:53:55.145Z,98522.16
2022-12-23T02:55:08.993Z,98526.50
2022-12-23T02:56:16.035Z,98525.84
2022-12-23T02:57:31.872Z,98521.44
2022-12-23T02:58:48.305Z,98533.56
2022-12-23T02:59:58.196Z,98527.66
2022-12-23T03:01:06.690Z,98533.56
2022-12-23T03:02:11.659Z,98536.09
2022-12-23T03:03:28.807Z,98532.50
2022-12-23T03:04:41.405Z,98537.78
2022-12-23T03:05:49.208Z,98538.66
2022-12-23T03:06:58.094Z,98531.59
2022-12-23T03:08:15.912Z,98536.75
2022-12-23T03:09:39.077Z,98540.97
2022-12-23T03:11:03.292Z,98531.47
2022-12-23T03:12:25.111Z,98540.97
2022-12-23T03:13:56.041Z,98535.69
2022-12-23T03:15:23.919Z,98532.13
2022-12-23T03:16:32.881Z,98529.38
2022-12-23T03:18:28.380Z,98531.09
2022-12-23T03:19:48.152Z,98526.72
2022-12-23T03:21:06.761Z,98531.81
2022-12-23T03:22:44.004Z,98539.63
2022-12-23T03:24:09.371Z,98529.38
2022-12-23T03:26:01.325Z,98538.91
2022-12-23T03:27:12.693Z,98543.44
2022-12-23T03:28:41.806Z,98537.28
2022-12-23T03:30:06.993Z,98544.06
2022-12-23T03:31:18.532Z,98538.16
2022-12-23T03:32:27.668Z,98542.38
2022-12-23T03:33:46.309Z,98543.31
2022-12-23T03:34:57.054Z,98541.53
2022-12-23T03:36:24.448Z,98536.16
2022-12-23T03:37:32.991Z,98533.63
2022-12-23T03:38:41.543Z,98538.06
2022-12-23T03:39:57.484Z,98534.47
2022-12-23T03:41:13.886Z,98540.59
2022-12-23T03:42:33.637Z,98532.78
2022-12-23T03:43:55.269Z,98531.09
2022-12-23T03:46:48.951Z,98531.81
2022-12-23T03:48:06.977Z,98528.34
2022-12-23T03:49:27.993Z,98538.22
2022-12-23T03:50:37.292Z,98531.16
2022-12-23T03:51:52.863Z,98532.94
2022-12-23T03:53:15.958Z,98529.38
2022-12-23T03:54:31.878Z,98529.47
2022-12-23T03:55:59.689Z,98533.81
2022-12-23T03:57:26.906Z,98529.38
2022-12-23T03:58:39.923Z,98526.66
2022-12-23T03:59:54.000Z,98533.63
2022-12-23T04:01:30.490Z,98538.91
2022-12-23T04:02:51.143Z,98535.41
2022-12-23T04:04:37.531Z,98535.69
2022-12-23T04:05:47.304Z,98534.00
2022-12-23T04:07:15.807Z,98543.63
2022-12-23T04:08:40.219Z,98534.75
2022-12-23T04:09:45.298Z,98544.34
2022-12-23T04:10:51.892Z,98538.22
2022-12-23T04:11:58.695Z,98535.59
2022-12-23T04:13:04.678Z,98538.22
2022-12-23T04:14:10.166Z,98532.22
2022-12-23T04:15:21.512Z,98536.31
2022-12-23T04:16:27.491Z,98538.19
2022-12-23T04:17:32.252Z,98535.16
2022-12-23T04:18:36.511Z,98529.88
2022-12-23T04:19:40.906Z,98533.16
2022-12-23T04:20:48.058Z,98532.13
2022-12-23T04:21:53.213Z,98534.66
2022-12-23T04:22:56.727Z,98531.09
2022-12-23T04:24:00.820Z,98524.97
2022-12-23T04:25:06.827Z,98531.72
2022-12-23T04:26:11.187Z,98532.94
2022-12-23T04:27:16.594Z,98532.88
2022-12-23T04:28:20.572Z,98531.94
2022-12-23T04:29:24.277Z,98533.63
2022-12-23T04:30:33.555Z,98536.25
2022-12-23T04:31:38.861Z,98538.91
2022-12-23T04:32:43.696Z,98533.72
2022-12-23T04:33:47.997Z,98535.53
2022-12-23T04:34:56.592Z,98532.78
2022-12-23T04:36:01.308Z,98537.94
2022-12-23T04:37:09.368Z,98529.19
2022-12-23T04:38:14.568Z,98537.94
2022-12-23T04:39:20.133Z,98540.47
2022-12-23T04:40:24.532Z,98534.47
2022-12-23T04:41:29.154Z,98532.56
2022-12-23T04:42:33.078Z,98533.81
2022-12-23T04:43:37.501Z,98541.63
2022-12-23T04:44:41.088Z,98535.41
2022-12-23T04:45:49.917Z,98539.06
2022-12-23T04:46:54.086Z,98540.69
2022-12-23T04:47:58.826Z,98537.22
2022-12-23T04:49:11.125Z,98532.78
2022-12-23T04:50:18.650Z,98540.69
2022-12-23T04:51:25.350Z,98535.31
2022-12-23T04:52:29.733Z,98535.31
2022-12-23T04:53:36.716Z,98537.84
2022-12-23T04:54:45.816Z,98537.00
2022-12-23T04:55:55.500Z,98540.47
2022-12-23T04:56:59.187Z,98537.00
2022-12-23T04:58:05.534Z,98535.31
2022-12-23T04:59:11.554Z,98531.94
2022-12-23T05:00:20.140Z,98533.63
2022-12-23T05:01:24.705Z,98536.25
2022-12-23T05:02:30.235Z,98527.59
2022-12-23T05:03:34.984Z,98524.09
2022-12-23T05:04:45.269Z,98522.41
2022-12-23T05:05:49.898Z,98529.47
2022-12-23T05:06:55.929Z,98525.16
2022-12-23T05:08:05.651Z,98521.56
2022-12-23T05:09:12.206Z,98524.31
2022-12-23T05:10:17.451Z,98515.53
2022-12-23T05:11:21.124Z,98511.97
2022-12-23T05:12:24.993Z,98520.94
2022-12-23T05:13:28.596Z,98510.50
2022-12-23T05:14:32.915Z,98506.06
2022-12-23T05:15:36.739Z,98511.31
2022-12-23T05:16:40.861Z,98513.13
2022-12-23T05:17:44.753Z,98505.22
2022-12-23T05:18:49.226Z,98503.41
2022-12-23T05:19:53.320Z,98500.84
2022-12-23T05:20:56.953Z,98498.22
2022-12-23T05:22:03.235Z,98502.66
2022-12-23T05:23:08.418Z,98510.56
2022-12-23T05:24:16.489Z,98505.50
2022-12-23T05:25:21.664Z,98506.44
2022-12-23T05:26:28.564Z,98502.00
2022-12-23T05:27:37.541Z,98502.00
2022-12-23T05:28:43.586Z,98497.69
2022-12-23T05:29:47.322Z,98495.06
2022-12-23T05:31:00.124Z,98496.00
2022-12-23T05:32:05.934Z,98493.53
2022-12-23T05:33:13.931Z,98493.00
2022-12-23T05:34:20.289Z,98497.34
2022-12-23T05:35:27.053Z,98498.47
2022-12-23T05:36:31.170Z,98492.47
2022-12-23T05:37:35.561Z,98498.22
2022-12-23T05:38:41.251Z,98498.22
2022-12-23T05:39:45.620Z,98502.66
2022-12-23T05:40:50.063Z,98492.28
2022-12-23T05:41:54.222Z,98499.25
2022-12-23T05:42:57.723Z,98501.16
2022-12-23T05:44:01.321Z,98503.06
2022-12-23T05:45:06.979Z,98496.09
2022-12-23T05:46:26.222Z,98501.38
2022-12-23T05:47:32.882Z,98501.53
2022-12-23T05:48:36.563Z,98498.16
2022-12-23T05:49:40.984Z,98491.19
2022-12-23T05:50:50.922Z,98491.38
2022-12-23T05:51:54.993Z,98496.75
2022-12-23T05:53:00.213Z,98498.66
2022-12-23T05:54:04.226Z,98499.72
2022-12-23T05:55:11.975Z,98497.13
2022-12-23T05:56:17.365Z,98502.50
2022-12-23T05:57:23.056Z,98492.91
2022-12-23T05:58:28.211Z,98492.06
2022-12-23T05:59:35.396Z,98500.94
2022-12-23T06:00:44.431Z,98499.13
2022-12-23T06:01:51.465Z,98507.03
2022-12-23T06:02:55.716Z,98500.94
2022-12-23T06:04:05.923Z,98507.03
2022-12-23T06:05:12.793Z,98501.94
2022-12-23T06:06:24.865Z,98506.38
2022-12-23T06:07:28.398Z,98510.06
2022-12-23T06:08:32.086Z,98504.03
2022-12-23T06:09:35.955Z,98501.41
2022-12-23T06:10:46.737Z,98503.28
2022-12-23T06:11:54.034Z,98510.25
2022-12-23T06:13:04.110Z,98505.91
2022-12-23T06:14:11.098Z,98509.69
2022-12-23T06:15:17.034Z,98514.97
2022-12-23T06:16:21.075Z,98514.22
2022-12-23T06:17:27.203Z,98507.22
2022-12-23T06:18:31.403Z,98512.59
2022-12-23T06:19:37.085Z,98514.28
2022-12-23T06:20:41.021Z,98515.13
2022-12-23T06:21:45.785Z,98514.28
2022-12-23T06:22:49.541Z,98515.25
2022-12-23T06:23:53.345Z,98510.81
2022-12-23T06:24:57.370Z,98513.44
2022-12-23T06:26:03.295Z,98514.41
2022-12-23T06:27:09.309Z,98514.41
2022-12-23T06:28:16.836Z,98515.53
2022-12-23T06:29:24.112Z,98517.22
2022-12-23T06:30:29.815Z,98510.34
2022-12-23T06:31:34.481Z,98509.59
2022-12-23T06:32:41.171Z,98505.38
2022-12-23T06:33:45.130Z,98514.03
2022-12-23T06:34:53.727Z,98522.69
2022-12-23T06:35:58.557Z,98523.44
2022-12-23T06:37:02.847Z,98534.84
2022-12-23T06:38:12.036Z,98527.78
2022-12-23T06:39:20.971Z,98521.56
2022-12-23T06:40:25.743Z,98525.03
2022-12-23T06:41:53.441Z,98528.50
2022-12-23T06:42:59.823Z,98535.69
2022-12-23T06:44:05.063Z,98527.88
2022-12-23T06:45:19.256Z,98520.72
2022-12-23T06:46:23.705Z,98523.34
2022-12-23T06:47:29.030Z,98518.94
2022-12-23T06:48:35.351Z,98520.72
2022-12-23T06:49:39.275Z,98519.88
2022-12-23T06:50:43.659Z,98519.03
2022-12-23T06:51:47.844Z,98519.03
2022-12-23T06:52:51.509Z,98519.75
2022-12-23T06:53:55.438Z,98511.97
2022-12-23T06:55:04.477Z,98511.03
2022-12-23T06:56:16.262Z,98517.22
2022-12-23T06:57:21.093Z,98516.38
2022-12-23T06:58:25.467Z,98511.19
2022-12-23T06:59:34.137Z,98518.19
2022-12-23T07:00:39.395Z,98504.22
2022-12-23T07:01:45.087Z,98516.38
2022-12-23T07:02:49.333Z,98518.19
2022-12-23T07:03:53.408Z,98505.91
2022-12-23T07:05:00.003Z,98517.34
2022-12-23T07:06:03.955Z,98515.63
2022-12-23T07:07:12.669Z,98519.09
2022-12-23T07:08:18.480Z,98512.91
2022-12-23T07:09:24.885Z,98521.66
2022-12-23T07:10:38.385Z,98519.03
2022-12-23T07:11:42.118Z,98515.63
2022-12-23T07:12:50.505Z,98525.13
2022-12-23T07:13:54.725Z,98517.22
2022-12-23T07:14:58.239Z,98518.19
2022-12-23T07:16:13.040Z,98525.13
2022-12-23T07:17:17.173Z,98519.88
2022-12-23T07:18:25.601Z,98518.19
2022-12-23T07:19:29.209Z,98515.53
2022-12-23T07:20:32.913Z,98512.91
2022-12-23T07:21:36.908Z,98505.00
2022-12-23T07:22:41.487Z,98509.31
2022-12-23T07:23:45.729Z,98505.91
2022-12-23T07:24:49.476Z,98504.22
2022-12-23T07:25:54.289Z,98506.69
2022-12-23T07:26:58.570Z,98516.66
2022-12-23T07:28:03.804Z,98511.19
2022-12-23T07:29:09.229Z,98515.44
2022-12-23T07:30:13.459Z,98513.75
2022-12-23T07:31:22.295Z,98509.31
2022-12-23T07:32:29.448Z,98506.59
2022-12-23T07:33:34.066Z,98505.75
2022-12-23T07:34:39.995Z,98505.66
2022-12-23T07:35:45.571Z,98506.50
2022-12-23T07:36:49.846Z,98508.13
2022-12-23T07:38:01.484Z,98506.31
2022-12-23T07:39:06.073Z,98508.13
2022-12-23T07:40:12.149Z,98520.34
2022-12-23T07:41:15.767Z,98512.34
2022-12-23T07:42:44.214Z,98506.13
2022-12-23T07:43:49.039Z,98507.06
2022-12-23T07:44:52.909Z,98511.28
2022-12-23T07:46:01.132Z,98510.44
2022-12-23T07:47:07.418Z,98525.41
2022-12-23T07:48:16.756Z,98523.72
2022-12-23T07:49:21.720Z,98524.75
2022-12-23T07:50:46.380Z,98522.78
2022-12-23T07:51:50.871Z,98521.94
2022-12-23T07:52:59.474Z,98522.03
2022-12-23T07:54:03.629Z,98521.19
2022-12-23T07:55:15.001Z,98510.66
2022-12-23T07:56:19.992Z,98509.59
2022-12-23T07:57:30.162Z,98519.09
2022-12-23T07:58:33.898Z,98516.28
2022-12-23T07:59:38.851Z,98511.75
2022-12-23T08:00:43.161Z,98517.75
2022-12-23T08:01:51.345Z,98510.69
2022-12-23T08:02:55.730Z,98510.63
2022-12-23T08:04:02.705Z,98508.06
2022-12-23T08:05:11.676Z,98511.75
2022-12-23T08:06:20.318Z,98506.47
2022-12-23T08:07:25.575Z,98503.00
2022-12-23T08:08:30.443Z,98496.78
2022-12-23T08:09:34.121Z,98495.75
2022-12-23T08:10:47.749Z,98493.88
2022-12-23T08:11:56.049Z,98492.72
2022-12-23T08:13:04.435Z,98501.28
2022-12-23T08:14:10.825Z,98505.50
2022-12-23T08:15:19.349Z,98497.50
2022-12-23T08:16:23.772Z,98498.25
2022-12-23T08:17:32.463Z,98493.72
2022-12-23T08:18:40.914Z,98502.50
2022-12-23T08:19:52.976Z,98503.22
2022-12-23T08:21:11.776Z,98504.94
2022-12-23T08:22:16.142Z,98508.50
2022-12-23T08:23:24.749Z,98503.22
2022-12-23T08:24:30.494Z,98499.69
2022-12-23T08:25:34.268Z,98500.53
2022-12-23T08:26:38.823Z,98498.81
2022-12-23T08:27:46.331Z,98496.72
2022-12-23T08:28:54.575Z,98508.97
2022-12-23T08:29:58.470Z,98507.81
2022-12-23T08:31:24.443Z,98502.25
2022-12-23T08:32:28.799Z,98496.34
2022-12-23T08:33:33.804Z,98505.66
2022-12-23T08:34:39.501Z,98501.84
2022-12-23T08:35:46.647Z,98497.25
2022-12-23T08:36:51.948Z,98496.06
2022-12-23T08:37:59.404Z,98502.19
2022-12-23T08:39:18.750Z,98495.06
2022-12-23T08:40:30.311Z,98503.69
2022-12-23T08:41:46.051Z,98502.75
2022-12-23T08:42:49.710Z,98504.66
2022-12-23T08:43:55.342Z,98500.31
2022-12-23T08:45:01.114Z,98501.06
2022-12-23T08:46:06.260Z,98498.22
2022-12-23T08:47:12.019Z,98503.41
2022-12-23T08:48:17.070Z,98495.41
2022-12-23T08:49:23.199Z,98495.41
2022-12-23T08:50:27.787Z,98495.41
2022-12-23T08:51:32.190Z,98497.19
2022-12-23T08:52:36.191Z,98488.22
2022-12-23T08:53:41.623Z,98490.00
2022-12-23T08:54:45.440Z,98491.81
2022-12-23T08:55:55.449Z,98485.47
2022-12-23T08:57:00.342Z,98487.25
2022-12-23T08:58:15.695Z,98492.44
2022-12-23T08:59:21.628Z,98484.53
2022-12-23T09:00:29.580Z,98483.59
2022-12-23T09:01:35.318Z,98475.75
2022-12-23T09:02:41.096Z,98484.53
2022-12-23T09:03:45.911Z,98485.28
2022-12-23T09:04:54.661Z,98476.44
2022-12-23T09:06:06.310Z,98484.22
2022-12-23T09:07:12.486Z,98477.25
2022-12-23T09:08:24.521Z,98478.78
2022-12-23T09:09:30.946Z,98479.63
2022-12-23T09:10:45.064Z,98485.72
2022-12-23T09:11:48.593Z,98479.50
2022-12-23T09:12:52.587Z,98478.56
2022-12-23T09:13:59.970Z,98478.56
2022-12-23T09:15:03.875Z,98474.22
2022-12-23T09:16:11.376Z,98472.44
2022-12-23T09:17:15.414Z,98464.53
2022-12-23T09:18:22.126Z,98470.63
2022-12-23T09:19:26.070Z,98466.09
2022-12-23T09:20:29.778Z,98464.22
2022-12-23T09:21:34.170Z,98460.63
2022-12-23T09:22:37.737Z,98460.41
2022-12-23T09:23:44.943Z,98465.50
2022-12-23T09:24:49.002Z,98460.97
2022-12-23T09:25:57.250Z,98454.72
2022-12-23T09:27:00.924Z,98455.34
2022-12-23T09:28:27.749Z,98450.84
2022-12-23T09:29:31.456Z,98455.78
2022-12-23T09:30:35.583Z,98454.75
2022-12-23T09:31:39.856Z,98462.34
2022-12-23T09:32:44.429Z,98460.47
2022-12-23T09:33:52.672Z,98456.75
2022-12-23T09:34:58.682Z,98455.63
2022-12-23T09:36:13.131Z,98452.88
2022-12-23T09:37:23.772Z,98456.34
2022-12-23T09:38:33.784Z,98445.66
2022-12-23T09:39:40.037Z,98450.72
2022-12-23T09:40:44.286Z,98448.97
2022-12-23T09:42:27.818Z,98451.50
2022-12-23T09:44:16.415Z,98445.03
2022-12-23T09:46:05.733Z,98443.22
2022-12-23T09:47:19.988Z,98445.88
2022-12-23T09:48:32.816Z,98446.63
2022-12-23T09:49:49.312Z,98445.78
2022-12-23T09:50:56.688Z,98442.19
2022-12-23T09:52:15.501Z,98446.28
2022-12-23T09:53:26.092Z,98443.16
2022-12-23T09:54:49.835Z,98441.25
2022-12-23T09:56:18.639Z,98434.88
2022-12-23T09:57:42.513Z,98438.25
2022-12-23T09:59:25.775Z,98439.13
2022-12-23T10:00:43.425Z,98433.84
2022-12-23T10:02:15.504Z,98426.66
2022-12-23T10:04:24.667Z,98420.41
2022-12-23T10:06:02.649Z,98416.81
2022-12-23T10:07:08.010Z,98408.91
2022-12-23T10:08:39.443Z,98406.25
2022-12-23T10:09:50.246Z,98396.66
2022-12-23T10:11:19.219Z,98397.25
2022-12-23T10:12:50.070Z,98399.06
2022-12-23T10:14:13.455Z,98395.50
2022-12-23T10:15:34.484Z,98389.25
2022-12-23T10:16:53.489Z,98390.81
2022-12-23T10:18:10.778Z,98388.31
2022-12-23T10:19:28.863Z,98386.38
2022-12-23T10:20:47.469Z,98390.50
2022-12-23T10:22:01.279Z,98386.06
2022-12-23T10:23:22.005Z,98385.97
2022-12-23T10:24:45.227Z,98381.63
2022-12-23T10:26:00.643Z,98375.63
2022-12-23T10:27:27.173Z,98380.66
2022-12-23T10:28:35.057Z,98379.59
2022-12-23T10:29:47.035Z,98376.88
2022-12-23T10:31:40.155Z,98377.47
2022-12-23T10:33:40.416Z,98381.69
2022-12-23T10:35:21.094Z,98381.59
2022-12-23T10:37:19.993Z,98384.13
2022-12-23T10:39:22.169Z,98385.81
2022-12-23T10:40:53.084Z,98382.22
2022-12-23T10:42:46.602Z,98382.09
2022-12-23T10:44:18.478Z,98378.50
2022-12-23T10:45:42.476Z,98379.25
2022-12-23T10:47:17.070Z,98381.78
2022-12-23T10:49:15.143Z,98382.50
2022-12-23T10:50:46.632Z,98373.13
2022-12-23T10:52:01.223Z,98377.22
2022-12-23T10:53:15.439Z,98368.25
2022-12-23T10:54:31.995Z,98366.31
2022-12-23T10:55:39.485Z,98374.03
2022-12-23T10:56:46.647Z,98373.06
2022-12-23T10:57:52.668Z,98368.63
2022-12-23T10:59:02.431Z,98372.13
2022-12-23T11:00:28.064Z,98377.06
2022-12-23T11:01:34.365Z,98375.16
2022-12-23T11:03:28.384Z,98373.34
2022-12-23T11:04:51.926Z,98375.53
2022-12-23T11:05:59.158Z,98376.31
2022-12-23T11:08:43.532Z,98367.28
2022-12-23T11:10:21.762Z,98371.41
2022-12-23T11:11:56.085Z,98368.25
2022-12-23T11:13:09.411Z,98375.22
2022-12-23T11:14:39.576Z,98362.25
2022-12-23T11:15:43.358Z,98366.78
2022-12-23T11:16:47.380Z,98366.31
2022-12-23T11:18:27.256Z,98361.69
2022-12-23T11:19:31.285Z,98363.34
2022-12-23T11:20:38.929Z,98361.75
2022-12-23T11:21:58.390Z,98362.59
2022-12-23T11:23:05.276Z,98365.91
2022-12-23T11:24:25.349Z,98356.06
2022-12-23T11:25:42.038Z,98363.53
2022-12-23T11:26:51.768Z,98364.06
2022-12-23T11:28:14.721Z,98361.75
2022-12-23T11:29:31.797Z,98358.25
2022-12-23T11:30:55.482Z,98361.63
2022-12-23T11:32:22.482Z,98356.13
2022-12-23T11:33:40.949Z,98361.28
2022-12-23T11:34:49.745Z,98353.88
2022-12-23T11:36:14.117Z,98359.53
2022-12-23T11:37:43.693Z,98352.31
2022-12-23T11:39:29.533Z,98351.88
2022-12-23T11:40:44.343Z,98347.75
2022-12-23T11:41:55.823Z,98348.72
2022-12-23T11:43:17.501Z,98350.19
2022-12-23T11:44:45.279Z,98344.41
2022-12-23T11:46:09.742Z,98343.56
2022-12-23T11:47:23.248Z,98343.09
2022-12-23T11:48:34.214Z,98347.34
2022-12-23T11:50:02.133Z,98339.16
2022-12-23T11:51:08.056Z,98350.25
2022-12-23T11:52:19.127Z,98346.25
2022-12-23T11:53:33.898Z,98336.03
2022-12-23T11:54:38.286Z,98340.13
2022-12-23T11:56:09.902Z,98344.25
2022-12-23T11:57:21.816Z,98347.00
2022-12-23T11:58:28.607Z,98344.38
2022-12-23T11:59:50.194Z,98346.63
2022-12-23T12:01:26.358Z,98339.19
2022-12-23T12:02:43.251Z,98350.50
2022-12-23T12:04:00.296Z,98354.75
2022-12-23T12:05:35.683Z,98344.03
2022-12-23T12:06:54.192Z,98349.44
2022-12-23T12:08:22.592Z,98349.44
2022-12-23T12:09:30.987Z,98351.84
2022-12-23T12:10:38.554Z,98345.22
2022-12-23T12:12:20.419Z,98345.69
2022-12-23T12:13:39.459Z,98352.47
2022-12-23T12:14:58.995Z,98349.81
2022-12-23T12:16:33.340Z,98356.91
2022-12-23T12:17:53.260Z,98354.84
2022-12-23T12:19:11.423Z,98351.25
2022-12-23T12:20:37.201Z,98351.88
2022-12-23T12:21:40.958Z,98356.19
2022-12-23T12:23:05.601Z,98361.13
2022-12-23T12:24:30.371Z,98355.59
2022-12-23T12:25:53.109Z,98356.31
2022-12-23T12:27:05.150Z,98358.75
2022-12-23T12:28:39.621Z,98361.84
2022-12-23T12:30:08.126Z,98351.03
2022-12-23T12:31:41.350Z,98351.03
2022-12-23T12:33:05.776Z,98350.56
2022-12-23T12:34:48.082Z,98352.94
2022-12-23T12:36:22.921Z,98352.81
2022-12-23T12:37:44.640Z,98344.75
2022-12-23T12:38:54.950Z,98354.16
2022-12-23T12:40:07.642Z,98353.19
2022-12-23T12:42:05.327Z,98355.00
2022-12-23T12:43:40.485Z,98360.41
2022-12-23T12:45:27.246Z,98355.81
2022-12-23T12:46:57.071Z,98357.63
2022-12-23T12:48:13.098Z,98347.03
2022-12-23T12:49:43.851Z,98355.00
2022-12-23T12:51:16.324Z,98354.28
2022-12-23T12:52:28.765Z,98355.13
2022-12-23T12:53:34.015Z,98349.81
2022-12-23T12:54:59.751Z,98350.66
2022-12-23T12:56:53.742Z,98341.88
2022-12-23T12:57:58.500Z,98345.34
2022-12-23T12:59:02.224Z,98346.19
2022-12-23T13:00:17.424Z,98348.00
2022-12-23T13:01:46.278Z,98339.22
2022-12-23T13:03:24.470Z,98345.22
2022-12-23T13:05:17.191Z,98350.66
2022-12-23T13:07:14.815Z,98347.03
2022-12-23T13:08:18.583Z,98351.75
2022-12-23T13:09:47.053Z,98349.09
2022-12-23T13:11:07.375Z,98356.09
2022-12-23T13:12:33.330Z,98342.09
2022-12-23T13:14:13.743Z,98354.50
2022-12-23T13:16:10.997Z,98345.72
2022-12-23T13:17:34.886Z,98358.97
2022-12-23T13:18:51.134Z,98357.16
2022-12-23T13:20:32.160Z,98349.31
2022-12-23T13:22:16.648Z,98345.84
2022-12-23T13:24:25.709Z,98358.38
2022-12-23T13:25:51.639Z,98358.38
2022-12-23T13:27:02.048Z,98358.50
2022-12-23T13:28:36.654Z,98359.44
2022-12-23T13:30:14.354Z,98354.97
2022-12-23T13:31:54.707Z,98351.63
2022-12-23T13:33:41.156Z,98363.66
2022-12-23T13:35:27.959Z,98368.50
2022-12-23T13:37:19.237Z,98371.00
2022-12-23T13:39:14.840Z,98365.72
2022-12-23T13:41:00.149Z,98374.84
2022-12-23T13:42:10.768Z,98374.63
2022-12-23T13:44:44.572Z,98368.84
2022-12-23T13:45:51.952Z,98373.03
2022-12-23T13:47:43.777Z,98375.56
2022-12-23T13:49:32.173Z,98374.84
2022-12-23T13:51:11.987Z,98381.94
2022-12-23T13:52:31.937Z,98382.78
2022-12-23T13:54:12.480Z,98382.91
2022-12-23T13:55:37.670Z,98389.66
2022-12-23T13:57:36.886Z,98385.78
2022-12-23T13:58:42.216Z,98386.03
2022-12-23T14:00:05.455Z,98398.28
2022-12-23T14:01:13.439Z,98392.00
2022-12-23T14:02:38.079Z,98395.50
2022-12-23T14:03:41.973Z,98393.56
2022-12-23T14:05:00.683Z,98398.97
2022-12-23T14:06:25.245Z,98395.84
2022-12-23T14:07:33.987Z,98392.59
2022-12-23T14:08:44.825Z,98396.91
2022-12-23T14:09:58.297Z,98398.56
2022-12-23T14:11:15.545Z,98401.09
2022-12-23T14:12:42.676Z,98397.38
2022-12-23T14:13:56.589Z,98401.69
2022-12-23T14:15:43.349Z,98401.81
2022-12-23T14:17:03.623Z,98399.91
2022-12-23T14:19:07.840Z,98404.69
2022-12-23T14:20:46.982Z,98402.16
2022-12-23T14:22:49.252Z,98407.69
2022-12-23T14:24:18.035Z,98406.13
2022-12-23T14:26:01.032Z,98413.56
2022-12-23T14:27:41.219Z,98410.28
2022-12-23T14:28:58.084Z,98408.97
2022-12-23T14:30:46.002Z,98409.81
2022-12-23T14:32:02.069Z,98413.28
2022-12-23T14:33:18.687Z,98412.44
2022-12-23T14:34:33.123Z,98419.41
2022-12-23T14:35:42.840Z,98415.94
2022-12-23T14:37:18.011Z,98415.81
2022-12-23T14:38:37.772Z,98415.09
2022-12-23T14:39:44.707Z,98414.97
2022-12-23T14:41:18.715Z,98409.06
2022-12-23T14:42:49.110Z,98419.41
2022-12-23T14:43:57.273Z,98417.63
2022-12-23T14:45:37.744Z,98414.97
2022-12-23T14:46:43.364Z,98421.22
2022-12-23T14:47:53.603Z,98420.25
2022-12-23T14:49:37.551Z,98424.59
2022-12-23T14:50:35.256Z,98421.00
2022-12-23T14:51:41.417Z,98414.00
2022-12-23T14:53:02.859Z,98420.88
2022-12-23T14:54:07.500Z,98419.19